sensor_id;sensor_type;location;lat;lon;timestamp;temperature;humidity
24262;DHT22;12385;51.412;5.540;2022-08-14T00:01:08;22.60;61.80
24262;DHT22;12385;51.412;5.540;2022-08-14T00:03:35;22.60;62.00
24262;DHT22;12385;51.412;5.540;2022-08-14T00:06:01;22.50;62.00
24262;DHT22;12385;51.412;5.540;2022-08-14T00:08:28;22.50;62.20
24262;DHT22;12385;51.412;5.540;2022-08-14T00:10:54;22.50;62.50
24262;DHT22;12385;51.412;5.540;2022-08-14T00:13:22;22.40;62.70
24262;DHT22;12385;51.412;5.540;2022-08-14T00:15:49;22.40;62.80
24262;DHT22;12385;51.412;5.540;2022-08-14T00:18:19;22.40;62.90
24262;DHT22;12385;51.412;5.540;2022-08-14T00:20:45;22.30;63.10
24262;DHT22;12385;51.412;5.540;2022-08-14T00:23:13;22.30;63.10
24262;DHT22;12385;51.412;5.540;2022-08-14T00:25:39;22.30;63.20
24262;DHT22;12385;51.412;5.540;2022-08-14T00:28:07;22.30;63.20
24262;DHT22;12385;51.412;5.540;2022-08-14T00:30:34;22.30;63.30
24262;DHT22;12385;51.412;5.540;2022-08-14T00:32:59;22.30;63.50
24262;DHT22;12385;51.412;5.540;2022-08-14T00:35:25;22.30;63.60
24262;DHT22;12385;51.412;5.540;2022-08-14T00:37:53;22.40;63.30
24262;DHT22;12385;51.412;5.540;2022-08-14T00:40:19;22.40;62.80
24262;DHT22;12385;51.412;5.540;2022-08-14T00:42:46;22.40;62.60
24262;DHT22;12385;51.412;5.540;2022-08-14T00:45:13;22.40;62.70
24262;DHT22;12385;51.412;5.540;2022-08-14T00:47:40;22.40;62.80
24262;DHT22;12385;51.412;5.540;2022-08-14T00:50:08;22.30;62.80
24262;DHT22;12385;51.412;5.540;2022-08-14T00:52:34;22.30;63.00
24262;DHT22;12385;51.412;5.540;2022-08-14T00:55:00;22.30;62.80
24262;DHT22;12385;51.412;5.540;2022-08-14T00:57:29;22.30;62.30
24262;DHT22;12385;51.412;5.540;2022-08-14T00:59:57;22.30;62.30
24262;DHT22;12385;51.412;5.540;2022-08-14T01:02:24;22.30;62.40
24262;DHT22;12385;51.412;5.540;2022-08-14T01:04:55;22.30;62.40
24262;DHT22;12385;51.412;5.540;2022-08-14T01:07:23;22.30;62.40
24262;DHT22;12385;51.412;5.540;2022-08-14T01:09:57;22.30;62.20
24262;DHT22;12385;51.412;5.540;2022-08-14T01:12:25;22.30;62.00
24262;DHT22;12385;51.412;5.540;2022-08-14T01:14:51;22.30;61.90
24262;DHT22;12385;51.412;5.540;2022-08-14T01:17:23;22.30;62.00
24262;DHT22;12385;51.412;5.540;2022-08-14T01:19:49;22.30;62.10
24262;DHT22;12385;51.412;5.540;2022-08-14T01:22:33;22.30;62.10
24262;DHT22;12385;51.412;5.540;2022-08-14T01:25:00;22.20;62.10
24262;DHT22;12385;51.412;5.540;2022-08-14T01:27:26;22.20;62.00
24262;DHT22;12385;51.412;5.540;2022-08-14T01:29:54;22.10;61.70
24262;DHT22;12385;51.412;5.540;2022-08-14T01:32:21;22.10;61.40
24262;DHT22;12385;51.412;5.540;2022-08-14T01:34:54;22.10;61.20
24262;DHT22;12385;51.412;5.540;2022-08-14T01:37:21;22.10;60.70
24262;DHT22;12385;51.412;5.540;2022-08-14T01:39:49;22.10;60.80
24262;DHT22;12385;51.412;5.540;2022-08-14T01:42:16;22.10;60.70
24262;DHT22;12385;51.412;5.540;2022-08-14T01:44:42;22.10;60.50
24262;DHT22;12385;51.412;5.540;2022-08-14T01:47:09;22.10;60.40
24262;DHT22;12385;51.412;5.540;2022-08-14T01:49:39;22.10;60.40
24262;DHT22;12385;51.412;5.540;2022-08-14T01:52:05;22.10;60.50
24262;DHT22;12385;51.412;5.540;2022-08-14T01:54:32;22.10;60.50
24262;DHT22;12385;51.412;5.540;2022-08-14T01:56:58;22.10;60.60
24262;DHT22;12385;51.412;5.540;2022-08-14T01:59:26;22.00;60.60
24262;DHT22;12385;51.412;5.540;2022-08-14T02:02:05;22.00;60.40
24262;DHT22;12385;51.412;5.540;2022-08-14T02:04:39;22.00;60.30
24262;DHT22;12385;51.412;5.540;2022-08-14T02:07:07;22.00;60.40
24262;DHT22;12385;51.412;5.540;2022-08-14T02:09:34;22.00;60.40
24262;DHT22;12385;51.412;5.540;2022-08-14T02:12:03;22.00;60.60
24262;DHT22;12385;51.412;5.540;2022-08-14T02:14:29;21.90;60.70
24262;DHT22;12385;51.412;5.540;2022-08-14T02:16:56;21.90;60.70
24262;DHT22;12385;51.412;5.540;2022-08-14T02:19:27;22.00;61.00
24262;DHT22;12385;51.412;5.540;2022-08-14T02:21:55;21.90;61.40
24262;DHT22;12385;51.412;5.540;2022-08-14T02:24:23;21.80;61.60
24262;DHT22;12385;51.412;5.540;2022-08-14T02:26:51;21.80;62.20
24262;DHT22;12385;51.412;5.540;2022-08-14T02:29:20;21.80;62.40
24262;DHT22;12385;51.412;5.540;2022-08-14T02:31:51;21.60;62.60
24262;DHT22;12385;51.412;5.540;2022-08-14T02:34:21;21.60;63.10
24262;DHT22;12385;51.412;5.540;2022-08-14T02:36:51;21.50;63.60
24262;DHT22;12385;51.412;5.540;2022-08-14T02:39:18;21.40;64.00
24262;DHT22;12385;51.412;5.540;2022-08-14T02:41:44;21.30;64.40
24262;DHT22;12385;51.412;5.540;2022-08-14T02:44:13;21.30;64.90
24262;DHT22;12385;51.412;5.540;2022-08-14T02:46:40;21.10;65.20
24262;DHT22;12385;51.412;5.540;2022-08-14T02:49:08;21.10;65.70
24262;DHT22;12385;51.412;5.540;2022-08-14T02:51:35;20.90;66.90
24262;DHT22;12385;51.412;5.540;2022-08-14T02:54:01;20.80;66.70
24262;DHT22;12385;51.412;5.540;2022-08-14T02:56:27;20.70;67.10
24262;DHT22;12385;51.412;5.540;2022-08-14T02:58:55;20.60;67.70
24262;DHT22;12385;51.412;5.540;2022-08-14T03:01:22;20.40;68.00
24262;DHT22;12385;51.412;5.540;2022-08-14T03:03:49;20.30;68.40
24262;DHT22;12385;51.412;5.540;2022-08-14T03:06:17;20.30;68.80
24262;DHT22;12385;51.412;5.540;2022-08-14T03:08:45;20.20;69.10
24262;DHT22;12385;51.412;5.540;2022-08-14T03:11:11;20.10;68.70
24262;DHT22;12385;51.412;5.540;2022-08-14T03:13:46;20.10;69.40
24262;DHT22;12385;51.412;5.540;2022-08-14T03:16:14;20.10;69.50
24262;DHT22;12385;51.412;5.540;2022-08-14T03:18:42;20.00;70.00
24262;DHT22;12385;51.412;5.540;2022-08-14T03:21:11;20.00;70.30
24262;DHT22;12385;51.412;5.540;2022-08-14T03:23:44;20.00;70.60
24262;DHT22;12385;51.412;5.540;2022-08-14T03:26:13;19.90;71.00
24262;DHT22;12385;51.412;5.540;2022-08-14T03:28:41;19.80;71.40
24262;DHT22;12385;51.412;5.540;2022-08-14T03:31:08;19.70;71.80
24262;DHT22;12385;51.412;5.540;2022-08-14T03:33:36;19.60;72.20
24262;DHT22;12385;51.412;5.540;2022-08-14T03:36:10;19.50;72.70
24262;DHT22;12385;51.412;5.540;2022-08-14T03:38:45;19.50;73.20
24262;DHT22;12385;51.412;5.540;2022-08-14T03:41:13;19.40;73.50
24262;DHT22;12385;51.412;5.540;2022-08-14T03:43:45;19.40;74.00
24262;DHT22;12385;51.412;5.540;2022-08-14T03:46:12;19.40;74.20
24262;DHT22;12385;51.412;5.540;2022-08-14T03:48:39;19.30;74.60
24262;DHT22;12385;51.412;5.540;2022-08-14T03:51:06;19.30;75.10
24262;DHT22;12385;51.412;5.540;2022-08-14T03:53:34;19.20;75.30
24262;DHT22;12385;51.412;5.540;2022-08-14T03:56:05;19.20;75.70
24262;DHT22;12385;51.412;5.540;2022-08-14T03:58:32;19.10;75.90
24262;DHT22;12385;51.412;5.540;2022-08-14T04:00:59;19.10;76.30
24262;DHT22;12385;51.412;5.540;2022-08-14T04:03:25;19.00;76.60
24262;DHT22;12385;51.412;5.540;2022-08-14T04:05:52;19.00;77.00
24262;DHT22;12385;51.412;5.540;2022-08-14T04:08:18;18.90;77.20
24262;DHT22;12385;51.412;5.540;2022-08-14T04:10:45;18.90;77.60
24262;DHT22;12385;51.412;5.540;2022-08-14T04:13:11;18.80;77.90
24262;DHT22;12385;51.412;5.540;2022-08-14T04:15:39;18.80;78.30
24262;DHT22;12385;51.412;5.540;2022-08-14T04:18:04;18.80;78.70
24262;DHT22;12385;51.412;5.540;2022-08-14T04:20:33;18.70;78.80
24262;DHT22;12385;51.412;5.540;2022-08-14T04:22:59;18.70;79.10
24262;DHT22;12385;51.412;5.540;2022-08-14T04:25:26;18.70;79.40
24262;DHT22;12385;51.412;5.540;2022-08-14T04:27:52;18.70;79.70
24262;DHT22;12385;51.412;5.540;2022-08-14T04:30:19;18.60;79.90
24262;DHT22;12385;51.412;5.540;2022-08-14T04:32:45;18.60;80.20
24262;DHT22;12385;51.412;5.540;2022-08-14T04:35:10;18.60;80.40
24262;DHT22;12385;51.412;5.540;2022-08-14T04:37:36;18.60;80.70
24262;DHT22;12385;51.412;5.540;2022-08-14T04:40:20;18.70;81.00
24262;DHT22;12385;51.412;5.540;2022-08-14T04:43:04;18.70;81.20
24262;DHT22;12385;51.412;5.540;2022-08-14T04:45:48;18.70;81.60
24262;DHT22;12385;51.412;5.540;2022-08-14T04:48:15;18.70;81.60
24262;DHT22;12385;51.412;5.540;2022-08-14T04:50:47;18.80;81.80
24262;DHT22;12385;51.412;5.540;2022-08-14T04:53:20;18.80;81.80
24262;DHT22;12385;51.412;5.540;2022-08-14T04:55:48;18.90;82.70
24262;DHT22;12385;51.412;5.540;2022-08-14T04:58:14;18.90;81.90
24262;DHT22;12385;51.412;5.540;2022-08-14T05:00:43;19.00;81.90
24262;DHT22;12385;51.412;5.540;2022-08-14T05:03:09;19.10;82.00
24262;DHT22;12385;51.412;5.540;2022-08-14T05:05:35;19.20;82.20
24262;DHT22;12385;51.412;5.540;2022-08-14T05:08:06;19.20;82.20
24262;DHT22;12385;51.412;5.540;2022-08-14T05:10:35;19.30;82.20
24262;DHT22;12385;51.412;5.540;2022-08-14T05:13:00;19.30;82.30
24262;DHT22;12385;51.412;5.540;2022-08-14T05:15:26;19.40;82.40
24262;DHT22;12385;51.412;5.540;2022-08-14T05:17:54;19.40;82.50
24262;DHT22;12385;51.412;5.540;2022-08-14T05:20:20;19.50;82.50
24262;DHT22;12385;51.412;5.540;2022-08-14T05:22:45;19.50;82.30
24262;DHT22;12385;51.412;5.540;2022-08-14T05:25:11;19.60;82.10
24262;DHT22;12385;51.412;5.540;2022-08-14T05:27:37;19.60;82.30
24262;DHT22;12385;51.412;5.540;2022-08-14T05:30:04;19.70;82.70
24262;DHT22;12385;51.412;5.540;2022-08-14T05:32:30;19.70;82.90
24262;DHT22;12385;51.412;5.540;2022-08-14T05:34:57;19.80;83.80
24262;DHT22;12385;51.412;5.540;2022-08-14T05:37:23;19.90;83.10
24262;DHT22;12385;51.412;5.540;2022-08-14T05:39:49;19.90;83.10
24262;DHT22;12385;51.412;5.540;2022-08-14T05:42:14;20.00;83.20
24262;DHT22;12385;51.412;5.540;2022-08-14T05:44:41;20.00;83.10
24262;DHT22;12385;51.412;5.540;2022-08-14T05:47:07;20.10;83.00
24262;DHT22;12385;51.412;5.540;2022-08-14T05:49:32;20.10;83.10
24262;DHT22;12385;51.412;5.540;2022-08-14T05:51:58;20.20;83.30
24262;DHT22;12385;51.412;5.540;2022-08-14T05:54:24;20.30;83.40
24262;DHT22;12385;51.412;5.540;2022-08-14T05:56:50;20.40;83.40
24262;DHT22;12385;51.412;5.540;2022-08-14T05:59:17;20.40;82.90
24262;DHT22;12385;51.412;5.540;2022-08-14T06:01:42;20.50;82.80
24262;DHT22;12385;51.412;5.540;2022-08-14T06:04:08;20.50;82.40
24262;DHT22;12385;51.412;5.540;2022-08-14T06:06:33;20.60;82.40
24262;DHT22;12385;51.412;5.540;2022-08-14T06:08:59;20.60;82.20
24262;DHT22;12385;51.412;5.540;2022-08-14T06:11:25;20.70;82.20
24262;DHT22;12385;51.412;5.540;2022-08-14T06:13:51;20.70;82.00
24262;DHT22;12385;51.412;5.540;2022-08-14T06:16:17;20.80;81.80
24262;DHT22;12385;51.412;5.540;2022-08-14T06:18:45;20.90;81.70
24262;DHT22;12385;51.412;5.540;2022-08-14T06:21:11;20.90;81.60
24262;DHT22;12385;51.412;5.540;2022-08-14T06:23:36;21.00;81.40
24262;DHT22;12385;51.412;5.540;2022-08-14T06:26:02;21.10;81.20
24262;DHT22;12385;51.412;5.540;2022-08-14T06:28:27;21.10;81.10
24262;DHT22;12385;51.412;5.540;2022-08-14T06:30:54;21.20;81.00
24262;DHT22;12385;51.412;5.540;2022-08-14T06:33:20;21.30;81.00
24262;DHT22;12385;51.412;5.540;2022-08-14T06:35:47;21.30;80.80
24262;DHT22;12385;51.412;5.540;2022-08-14T06:38:19;21.40;80.80
24262;DHT22;12385;51.412;5.540;2022-08-14T06:40:45;21.40;80.80
24262;DHT22;12385;51.412;5.540;2022-08-14T06:43:12;21.50;81.00
24262;DHT22;12385;51.412;5.540;2022-08-14T06:45:41;21.60;81.10
24262;DHT22;12385;51.412;5.540;2022-08-14T06:48:18;21.60;81.00
24262;DHT22;12385;51.412;5.540;2022-08-14T06:50:45;21.70;81.10
24262;DHT22;12385;51.412;5.540;2022-08-14T06:53:11;21.70;81.50
24262;DHT22;12385;51.412;5.540;2022-08-14T06:55:39;21.80;81.50
24262;DHT22;12385;51.412;5.540;2022-08-14T06:58:10;22.00;81.50
24262;DHT22;12385;51.412;5.540;2022-08-14T07:00:37;22.00;81.20
24262;DHT22;12385;51.412;5.540;2022-08-14T07:03:02;22.10;81.20
24262;DHT22;12385;51.412;5.540;2022-08-14T07:05:47;22.20;81.00
24262;DHT22;12385;51.412;5.540;2022-08-14T07:08:18;22.20;80.50
24262;DHT22;12385;51.412;5.540;2022-08-14T07:10:46;22.30;79.90
24262;DHT22;12385;51.412;5.540;2022-08-14T07:13:13;22.50;79.60
24262;DHT22;12385;51.412;5.540;2022-08-14T07:15:40;22.50;79.50
24262;DHT22;12385;51.412;5.540;2022-08-14T07:18:07;22.60;79.20
24262;DHT22;12385;51.412;5.540;2022-08-14T07:20:34;22.70;78.80
24262;DHT22;12385;51.412;5.540;2022-08-14T07:23:03;22.70;78.30
24262;DHT22;12385;51.412;5.540;2022-08-14T07:25:30;22.80;77.60
24262;DHT22;12385;51.412;5.540;2022-08-14T07:27:55;22.90;76.90
24262;DHT22;12385;51.412;5.540;2022-08-14T07:30:21;23.00;76.10
24262;DHT22;12385;51.412;5.540;2022-08-14T07:32:47;23.00;75.40
24262;DHT22;12385;51.412;5.540;2022-08-14T07:35:13;23.20;75.10
24262;DHT22;12385;51.412;5.540;2022-08-14T07:37:40;23.20;74.70
24262;DHT22;12385;51.412;5.540;2022-08-14T07:40:06;23.30;74.00
24262;DHT22;12385;51.412;5.540;2022-08-14T07:42:32;23.30;73.50
24262;DHT22;12385;51.412;5.540;2022-08-14T07:44:59;23.40;73.00
24262;DHT22;12385;51.412;5.540;2022-08-14T07:47:24;23.50;72.70
24262;DHT22;12385;51.412;5.540;2022-08-14T07:50:10;23.60;72.70
24262;DHT22;12385;51.412;5.540;2022-08-14T07:52:37;23.60;72.50
24262;DHT22;12385;51.412;5.540;2022-08-14T07:55:04;23.70;72.90
24262;DHT22;12385;51.412;5.540;2022-08-14T07:57:30;23.80;71.60
24262;DHT22;12385;51.412;5.540;2022-08-14T07:59:55;23.90;71.30
24262;DHT22;12385;51.412;5.540;2022-08-14T08:02:21;23.90;71.00
24262;DHT22;12385;51.412;5.540;2022-08-14T08:04:51;24.00;70.70
24262;DHT22;12385;51.412;5.540;2022-08-14T08:07:18;24.10;70.50
24262;DHT22;12385;51.412;5.540;2022-08-14T08:09:51;24.10;70.50
24262;DHT22;12385;51.412;5.540;2022-08-14T08:12:19;24.20;70.30
24262;DHT22;12385;51.412;5.540;2022-08-14T08:14:47;24.20;69.70
24262;DHT22;12385;51.412;5.540;2022-08-14T08:17:19;24.30;69.30
24262;DHT22;12385;51.412;5.540;2022-08-14T08:19:46;24.40;68.80
24262;DHT22;12385;51.412;5.540;2022-08-14T08:22:15;24.50;68.50
24262;DHT22;12385;51.412;5.540;2022-08-14T08:24:40;24.50;68.40
24262;DHT22;12385;51.412;5.540;2022-08-14T08:27:15;24.60;68.20
24262;DHT22;12385;51.412;5.540;2022-08-14T08:29:41;24.70;68.10
24262;DHT22;12385;51.412;5.540;2022-08-14T08:32:07;24.80;67.40
24262;DHT22;12385;51.412;5.540;2022-08-14T08:34:44;24.80;66.50
24262;DHT22;12385;51.412;5.540;2022-08-14T08:37:10;25.00;65.60
24262;DHT22;12385;51.412;5.540;2022-08-14T08:39:46;25.00;64.80
24262;DHT22;12385;51.412;5.540;2022-08-14T08:42:12;25.10;63.90
24262;DHT22;12385;51.412;5.540;2022-08-14T08:44:38;25.10;63.90
24262;DHT22;12385;51.412;5.540;2022-08-14T08:47:03;25.20;64.10
24262;DHT22;12385;51.412;5.540;2022-08-14T08:49:36;25.30;64.20
24262;DHT22;12385;51.412;5.540;2022-08-14T08:52:06;25.30;63.80
24262;DHT22;12385;51.412;5.540;2022-08-14T08:54:32;25.40;63.40
24262;DHT22;12385;51.412;5.540;2022-08-14T08:56:58;25.50;63.30
24262;DHT22;12385;51.412;5.540;2022-08-14T08:59:25;25.60;62.80
24262;DHT22;12385;51.412;5.540;2022-08-14T09:04:24;25.80;62.00
24262;DHT22;12385;51.412;5.540;2022-08-14T09:06:51;25.90;61.00
24262;DHT22;12385;51.412;5.540;2022-08-14T09:09:22;26.00;59.90
24262;DHT22;12385;51.412;5.540;2022-08-14T09:11:48;26.10;59.40
24262;DHT22;12385;51.412;5.540;2022-08-14T09:14:14;26.20;59.10
24262;DHT22;12385;51.412;5.540;2022-08-14T09:16:40;26.30;59.10
24262;DHT22;12385;51.412;5.540;2022-08-14T09:19:08;26.40;59.20
24262;DHT22;12385;51.412;5.540;2022-08-14T09:21:34;26.50;59.90
24262;DHT22;12385;51.412;5.540;2022-08-14T09:24:03;26.60;59.50
24262;DHT22;12385;51.412;5.540;2022-08-14T09:26:29;26.70;59.10
24262;DHT22;12385;51.412;5.540;2022-08-14T09:28:55;26.80;58.90
24262;DHT22;12385;51.412;5.540;2022-08-14T09:31:21;26.90;57.90
24262;DHT22;12385;51.412;5.540;2022-08-14T09:34:00;27.00;57.20
24262;DHT22;12385;51.412;5.540;2022-08-14T09:36:42;27.10;56.50
24262;DHT22;12385;51.412;5.540;2022-08-14T09:45:06;27.40;55.60
24262;DHT22;12385;51.412;5.540;2022-08-14T09:50:31;27.60;54.80
24262;DHT22;12385;51.412;5.540;2022-08-14T09:53:04;27.70;54.50
24262;DHT22;12385;51.412;5.540;2022-08-14T09:55:33;27.80;54.80
24262;DHT22;12385;51.412;5.540;2022-08-14T09:58:14;27.90;54.60
24262;DHT22;12385;51.412;5.540;2022-08-14T10:00:55;28.00;54.40
24262;DHT22;12385;51.412;5.540;2022-08-14T10:03:32;28.00;54.50
24262;DHT22;12385;51.412;5.540;2022-08-14T10:06:14;28.10;53.90
24262;DHT22;12385;51.412;5.540;2022-08-14T10:11:28;28.30;53.10
24262;DHT22;12385;51.412;5.540;2022-08-14T10:14:20;28.30;52.80
24262;DHT22;12385;51.412;5.540;2022-08-14T10:16:50;28.30;52.40
24262;DHT22;12385;51.412;5.540;2022-08-14T10:19:20;28.40;52.40
24262;DHT22;12385;51.412;5.540;2022-08-14T10:22:00;28.50;52.40
24262;DHT22;12385;51.412;5.540;2022-08-14T10:24:29;28.60;53.00
24262;DHT22;12385;51.412;5.540;2022-08-14T10:26:57;28.60;52.20
24262;DHT22;12385;51.412;5.540;2022-08-14T10:29:43;28.70;51.70
24262;DHT22;12385;51.412;5.540;2022-08-14T10:32:09;28.80;51.30
24262;DHT22;12385;51.412;5.540;2022-08-14T10:34:37;28.90;51.60
24262;DHT22;12385;51.412;5.540;2022-08-14T10:37:08;28.90;51.60
24262;DHT22;12385;51.412;5.540;2022-08-14T10:39:37;29.00;51.60
24262;DHT22;12385;51.412;5.540;2022-08-14T10:42:06;29.00;50.70
24262;DHT22;12385;51.412;5.540;2022-08-14T10:47:03;29.10;49.80
24262;DHT22;12385;51.412;5.540;2022-08-14T10:49:43;29.20;50.10
24262;DHT22;12385;51.412;5.540;2022-08-14T10:52:26;29.20;50.40
24262;DHT22;12385;51.412;5.540;2022-08-14T10:55:09;29.20;50.60
24262;DHT22;12385;51.412;5.540;2022-08-14T10:57:48;29.30;50.20
24262;DHT22;12385;51.412;5.540;2022-08-14T11:00:17;29.40;49.60
24262;DHT22;12385;51.412;5.540;2022-08-14T11:02:55;29.60;49.30
24262;DHT22;12385;51.412;5.540;2022-08-14T11:05:24;29.70;49.30
24262;DHT22;12385;51.412;5.540;2022-08-14T11:10:41;30.10;48.20
24262;DHT22;12385;51.412;5.540;2022-08-14T11:13:08;30.20;48.00
24262;DHT22;12385;51.412;5.540;2022-08-14T11:15:34;30.40;47.00
24262;DHT22;12385;51.412;5.540;2022-08-14T11:18:01;30.60;46.90
24262;DHT22;12385;51.412;5.540;2022-08-14T11:20:30;30.80;46.70
24262;DHT22;12385;51.412;5.540;2022-08-14T11:22:58;30.90;46.30
24262;DHT22;12385;51.412;5.540;2022-08-14T11:25:27;31.10;45.60
24262;DHT22;12385;51.412;5.540;2022-08-14T11:27:57;31.20;44.70
24262;DHT22;12385;51.412;5.540;2022-08-14T11:30:28;31.40;45.10
24262;DHT22;12385;51.412;5.540;2022-08-14T11:32:56;31.50;45.00
24262;DHT22;12385;51.412;5.540;2022-08-14T11:35:26;31.70;44.80
24262;DHT22;12385;51.412;5.540;2022-08-14T11:37:59;31.80;44.60
24262;DHT22;12385;51.412;5.540;2022-08-14T11:40:33;31.90;43.70
24262;DHT22;12385;51.412;5.540;2022-08-14T11:43:00;31.90;44.10
24262;DHT22;12385;51.412;5.540;2022-08-14T11:45:28;32.10;43.50
24262;DHT22;12385;51.412;5.540;2022-08-14T11:48:18;32.30;43.00
24262;DHT22;12385;51.412;5.540;2022-08-14T11:50:45;32.50;42.40
24262;DHT22;12385;51.412;5.540;2022-08-14T11:55:54;32.80;41.10
24262;DHT22;12385;51.412;5.540;2022-08-14T11:58:25;32.90;41.30
24262;DHT22;12385;51.412;5.540;2022-08-14T12:00:54;33.00;41.20
24262;DHT22;12385;51.412;5.540;2022-08-14T12:03:21;33.10;41.20
24262;DHT22;12385;51.412;5.540;2022-08-14T12:05:47;33.20;40.60
24262;DHT22;12385;51.412;5.540;2022-08-14T12:08:12;33.30;40.00
24262;DHT22;12385;51.412;5.540;2022-08-14T12:10:41;33.40;39.30
24262;DHT22;12385;51.412;5.540;2022-08-14T12:13:11;33.50;38.90
24262;DHT22;12385;51.412;5.540;2022-08-14T12:15:39;33.50;39.20
24262;DHT22;12385;51.412;5.540;2022-08-14T12:18:07;33.60;38.60
24262;DHT22;12385;51.412;5.540;2022-08-14T12:20:35;33.70;38.70
24262;DHT22;12385;51.412;5.540;2022-08-14T12:23:03;33.80;38.70
24262;DHT22;12385;51.412;5.540;2022-08-14T12:25:30;33.80;38.50
24262;DHT22;12385;51.412;5.540;2022-08-14T12:27:57;34.00;38.00
24262;DHT22;12385;51.412;5.540;2022-08-14T12:30:27;34.10;38.30
24262;DHT22;12385;51.412;5.540;2022-08-14T12:32:55;34.30;38.50
24262;DHT22;12385;51.412;5.540;2022-08-14T12:35:21;34.40;38.40
24262;DHT22;12385;51.412;5.540;2022-08-14T12:37:51;34.60;37.50
24262;DHT22;12385;51.412;5.540;2022-08-14T12:40:18;34.60;36.90
24262;DHT22;12385;51.412;5.540;2022-08-14T12:42:49;34.60;36.40
24262;DHT22;12385;51.412;5.540;2022-08-14T12:45:16;34.80;36.40
24262;DHT22;12385;51.412;5.540;2022-08-14T12:47:45;34.90;36.10
24262;DHT22;12385;51.412;5.540;2022-08-14T12:50:11;35.10;35.70
24262;DHT22;12385;51.412;5.540;2022-08-14T12:52:42;35.20;35.80
24262;DHT22;12385;51.412;5.540;2022-08-14T12:55:14;35.40;35.60
24262;DHT22;12385;51.412;5.540;2022-08-14T12:57:45;35.60;35.80
24262;DHT22;12385;51.412;5.540;2022-08-14T13:00:17;35.90;35.50
24262;DHT22;12385;51.412;5.540;2022-08-14T13:02:47;36.10;34.50
24262;DHT22;12385;51.412;5.540;2022-08-14T13:05:18;36.30;34.50
24262;DHT22;12385;51.412;5.540;2022-08-14T13:07:46;36.40;34.40
24262;DHT22;12385;51.412;5.540;2022-08-14T13:10:14;36.60;34.30
24262;DHT22;12385;51.412;5.540;2022-08-14T13:12:41;36.70;33.70
24262;DHT22;12385;51.412;5.540;2022-08-14T13:15:09;36.90;33.50
24262;DHT22;12385;51.412;5.540;2022-08-14T13:17:43;36.80;33.40
24262;DHT22;12385;51.412;5.540;2022-08-14T13:20:14;36.80;33.10
24262;DHT22;12385;51.412;5.540;2022-08-14T13:22:40;36.60;32.60
24262;DHT22;12385;51.412;5.540;2022-08-14T13:25:09;36.40;32.60
24262;DHT22;12385;51.412;5.540;2022-08-14T13:27:35;36.10;32.90
24262;DHT22;12385;51.412;5.540;2022-08-14T13:30:06;35.90;33.30
24262;DHT22;12385;51.412;5.540;2022-08-14T13:32:33;35.70;33.40
24262;DHT22;12385;51.412;5.540;2022-08-14T13:35:04;35.60;33.50
24262;DHT22;12385;51.412;5.540;2022-08-14T13:37:30;35.80;33.40
24262;DHT22;12385;51.412;5.540;2022-08-14T13:39:56;36.20;32.70
24262;DHT22;12385;51.412;5.540;2022-08-14T13:42:22;36.70;32.50
24262;DHT22;12385;51.412;5.540;2022-08-14T13:44:51;37.20;32.00
24262;DHT22;12385;51.412;5.540;2022-08-14T13:47:23;37.70;31.60
24262;DHT22;12385;51.412;5.540;2022-08-14T13:49:54;38.10;31.10
24262;DHT22;12385;51.412;5.540;2022-08-14T13:52:21;38.60;30.70
24262;DHT22;12385;51.412;5.540;2022-08-14T13:54:48;39.00;30.30
24262;DHT22;12385;51.412;5.540;2022-08-14T13:57:15;39.50;29.90
24262;DHT22;12385;51.412;5.540;2022-08-14T13:59:49;39.90;29.40
24262;DHT22;12385;51.412;5.540;2022-08-14T14:02:16;40.20;28.70
24262;DHT22;12385;51.412;5.540;2022-08-14T14:04:45;40.40;28.30
24262;DHT22;12385;51.412;5.540;2022-08-14T14:07:15;40.60;28.10
24262;DHT22;12385;51.412;5.540;2022-08-14T14:09:45;40.70;27.80
24262;DHT22;12385;51.412;5.540;2022-08-14T14:12:12;41.10;27.60
24262;DHT22;12385;51.412;5.540;2022-08-14T14:14:39;41.30;27.10
24262;DHT22;12385;51.412;5.540;2022-08-14T14:17:10;41.60;27.00
24262;DHT22;12385;51.412;5.540;2022-08-14T14:19:42;42.00;26.70
24262;DHT22;12385;51.412;5.540;2022-08-14T14:22:12;42.10;26.60
24262;DHT22;12385;51.412;5.540;2022-08-14T14:24:41;42.20;26.30
24262;DHT22;12385;51.412;5.540;2022-08-14T14:27:07;42.20;26.30
24262;DHT22;12385;51.412;5.540;2022-08-14T14:29:35;42.10;26.30
24262;DHT22;12385;51.412;5.540;2022-08-14T14:32:01;42.00;26.20
24262;DHT22;12385;51.412;5.540;2022-08-14T14:34:29;41.80;26.50
24262;DHT22;12385;51.412;5.540;2022-08-14T14:36:55;41.60;26.90
24262;DHT22;12385;51.412;5.540;2022-08-14T14:39:24;41.20;27.10
24262;DHT22;12385;51.412;5.540;2022-08-14T14:41:54;41.10;26.90
24262;DHT22;12385;51.412;5.540;2022-08-14T14:44:25;40.80;26.50
24262;DHT22;12385;51.412;5.540;2022-08-14T14:46:53;40.60;26.40
24262;DHT22;12385;51.412;5.540;2022-08-14T14:49:20;40.40;26.40
24262;DHT22;12385;51.412;5.540;2022-08-14T14:51:48;40.20;26.10
24262;DHT22;12385;51.412;5.540;2022-08-14T14:54:16;39.60;26.40
24262;DHT22;12385;51.412;5.540;2022-08-14T14:56:42;39.20;27.10
24262;DHT22;12385;51.412;5.540;2022-08-14T14:59:11;39.00;27.40
24262;DHT22;12385;51.412;5.540;2022-08-14T15:01:37;38.90;27.50
24262;DHT22;12385;51.412;5.540;2022-08-14T15:04:04;38.70;27.60
24262;DHT22;12385;51.412;5.540;2022-08-14T15:06:31;38.60;27.90
24262;DHT22;12385;51.412;5.540;2022-08-14T15:08:58;38.60;27.90
24262;DHT22;12385;51.412;5.540;2022-08-14T15:11:24;38.50;27.90
24262;DHT22;12385;51.412;5.540;2022-08-14T15:13:52;38.40;28.60
24262;DHT22;12385;51.412;5.540;2022-08-14T15:16:18;38.40;28.60
24262;DHT22;12385;51.412;5.540;2022-08-14T15:18:44;38.40;28.30
24262;DHT22;12385;51.412;5.540;2022-08-14T15:21:11;38.40;28.50
24262;DHT22;12385;51.412;5.540;2022-08-14T15:23:37;38.50;28.70
24262;DHT22;12385;51.412;5.540;2022-08-14T15:26:04;38.70;29.00
24262;DHT22;12385;51.412;5.540;2022-08-14T15:28:30;38.80;28.70
24262;DHT22;12385;51.412;5.540;2022-08-14T15:30:58;38.80;28.80
24262;DHT22;12385;51.412;5.540;2022-08-14T15:33:23;38.80;28.80
24262;DHT22;12385;51.412;5.540;2022-08-14T15:36:08;38.80;28.80
24262;DHT22;12385;51.412;5.540;2022-08-14T15:38:34;38.70;28.60
24262;DHT22;12385;51.412;5.540;2022-08-14T15:41:00;38.50;28.30
24262;DHT22;12385;51.412;5.540;2022-08-14T15:43:29;38.30;28.50
24262;DHT22;12385;51.412;5.540;2022-08-14T15:46:01;38.20;28.70
24262;DHT22;12385;51.412;5.540;2022-08-14T15:48:29;37.90;28.90
24262;DHT22;12385;51.412;5.540;2022-08-14T15:50:54;37.70;29.10
24262;DHT22;12385;51.412;5.540;2022-08-14T15:53:21;37.70;29.40
24262;DHT22;12385;51.412;5.540;2022-08-14T15:55:50;37.70;29.30
24262;DHT22;12385;51.412;5.540;2022-08-14T15:58:16;37.90;29.20
24262;DHT22;12385;51.412;5.540;2022-08-14T16:00:42;37.90;29.30